Data for 11/10/2013

Time Sea-Level Adjusted Pressure Absolute Pressure Temperature Relative Humidity Dew Point   
(mb) (inHg) (mb) (inHg) (C) (F) (%) (C) (F)
00:05 1021 30.15 851 25.13 2 35.6 64 -4.1 24.6
00:10 1021 30.15 851 25.13 2.1 35.8 64 -4 24.7
00:15 1021 30.15 850 25.1 2.3 36.1 63 -4.1 24.6
00:20 1021 30.15 850 25.1 2.2 36 63 -4 24.7
00:25 1021 30.15 850 25.1 2.3 36.1 63 -3.9 24.9
00:30 1021 30.15 850 25.1 2.8 37 64 -3.3 26.1
00:35 1021 30.15 850 25.1 2.3 36.2 66 -3.3 26.1
00:40 1021 30.15 850 25.1 2.1 35.7 67 -3.4 25.9
00:45 1021 30.15 850 25.1 1.9 35.4 69 -3.2 26.2
00:50 1021 30.15 850 25.1 1.9 35.5 67 -3.6 25.6
00:55 1021 30.15 850 25.1 2 35.6 66 -3.8 25.2
01:00 1021 30.15 850 25.1 2.2 36 64 -3.8 25.2
01:05 1021 30.15 850 25.1 2.5 36.5 64 -3.7 25.3
01:10 1021 30.15 850 25.1 2.3 36.1 65 -3.7 25.3
01:15 1021 30.15 850 25.1 2 35.6 65 -4 24.8
01:20 1021 30.15 850 25.1 2 35.6 64 -4 24.8
01:25 1021 30.15 850 25.1 2.2 35.9 64 -4 24.8
01:30 1021 30.15 850 25.1 2.2 36 64 -3.9 25
01:35 1021 30.15 850 25.1 2.3 36.1 65 -3.6 25.5
01:40 1021 30.15 850 25.1 2 35.7 66 -3.7 25.4
01:45 1021 30.15 850 25.1 2.1 35.7 64 -4 24.8
01:50 1021 30.15 850 25.1 2.3 36.1 63 -4 24.9
01:55 1021 30.15 850 25.1 2.2 35.9 63 -4.2 24.4
02:00 1021 30.15 850 25.1 2.4 36.2 62 -4.2 24.5
02:05 1021 30.15 850 25.1 2.4 36.4 62 -4.1 24.6
02:10 1021 30.15 850 25.1 2.3 36.1 64 -3.7 25.3
02:15 1021 30.15 850 25.1 2.1 35.8 66 -3.7 25.3
02:20 1021 30.15 850 25.1 2 35.7 66 -3.7 25.3
02:25 1021 30.15 850 25.1 1.9 35.5 69 -3.2 26.3
02:30 1021 30.15 850 25.1 1.7 35.1 70 -3.1 26.4
02:35 1021 30.15 850 25.1 1.5 34.7 71 -3.2 26.3
02:40 1021 30.15 850 25.1 1.5 34.7 71 -3.3 26.1
02:45 1021 30.15 850 25.1 1.6 34.9 70 -3.3 26.1
02:50 1021 30.15 850 25.1 1.9 35.4 69 -3.2 26.2
02:55 1021 30.15 850 25.1 2.1 35.8 68 -3.1 26.4
03:00 1021 30.15 850 25.1 2.3 36.2 68 -3 26.6
03:05 1021 30.15 850 25.1 1.8 35.3 71 -2.9 26.8
03:10 1021 30.15 850 25.1 1.4 34.5 70 -3.5 25.7
03:15 1021 30.15 850 25.1 1.9 35.4 67 -3.5 25.7
03:20 1021 30.15 850 25.1 2.2 36 66 -3.4 25.9
03:25 1021 30.15 850 25.1 2.4 36.3 65 -3.5 25.7
03:30 1021 30.15 850 25.1 2.3 36.1 64 -3.8 25.2
03:35 1021 30.15 850 25.1 2.3 36.1 64 -3.9 25
03:40 1021 30.15 850 25.1 2.1 35.9 65 -3.7 25.4
03:45 1021 30.15 850 25.1 2 35.6 67 -3.6 25.6
03:50 1021 30.15 850 25.1 1.7 35 68 -3.6 25.5
03:55 1021 30.15 850 25.1 1.5 34.6 68 -3.8 25.2
04:00 1021 30.15 850 25.1 1.7 35.1 65 -4.2 24.5
04:05 1021 30.15 850 25.1 2.1 35.7 64 -4 24.9
04:10 1021 30.15 850 25.1 2.2 36 64 -3.9 24.9
04:15 1021 30.15 850 25.1 2.5 36.5 62 -4.1 24.7
04:20 1021 30.15 850 25.1 2.9 37.2 61 -3.8 25.1
04:25 1021 30.15 850 25.1 2.8 37.1 62 -3.8 25.2
04:30 1021 30.15 850 25.1 2.7 36.9 62 -3.8 25.1
04:35 1021 30.15 850 25.1 2.5 36.6 65 -3.5 25.7
04:40 1021 30.15 850 25.1 2.3 36.1 66 -3.5 25.7
04:45 1021 30.15 850 25.1 2 35.7 65 -3.8 25.2
04:50 1021 30.15 850 25.1 2.6 36.7 63 -3.8 25.2
04:55 1021 30.15 850 25.1 2.9 37.1 62 -3.8 25.1
05:00 1021 30.15 850 25.1 2.9 37.1 63 -3.6 25.6
05:05 1021 30.15 850 25.1 2.6 36.6 64 -3.5 25.7
05:10 1021 30.15 850 25.1 2.3 36.2 66 -3.3 26.1
05:15 1021 30.15 850 25.1 2.3 36.1 67 -3.2 26.2
05:20 1021 30.15 850 25.1 2.3 36.2 64 -3.8 25.2
05:25 1021 30.15 850 25.1 2.6 36.7 63 -3.7 25.4
05:30 1021 30.15 850 25.1 2.7 36.8 62 -3.8 25.2
05:35 1021 30.15 850 25.1 2.8 37.1 63 -3.5 25.7
05:40 1021 30.15 850 25.1 2.8 37 65 -3.2 26.3
05:45 1021 30.15 850 25.1 2.7 36.9 66 -2.9 26.8
05:50 1021 30.15 850 25.1 2.7 36.8 67 -2.7 27.1
05:55 1021 30.15 850 25.1 2.7 36.9 68 -2.7 27.2
06:00 1021 30.15 851 25.13 2.6 36.6 68 -2.7 27.1
06:05 1021 30.15 851 25.13 2.5 36.5 68 -2.8 26.9
06:10 1021 30.15 851 25.13 2.3 36.1 70 -2.7 27.2
06:15 1021 30.15 851 25.13 2.2 35.9 70 -2.8 26.9
06:20 1021 30.15 851 25.13 2 35.7 70 -2.8 26.9
06:25 1021 30.15 851 25.13 2.1 35.7 69 -3 26.7
06:30 1021 30.15 851 25.13 2.2 36 70 -2.6 27.3
06:35 1021 30.15 851 25.13 2.2 36 70 -2.7 27.1
06:40 1021 30.15 851 25.13 2.5 36.4 69 -2.7 27.2
06:45 1021 30.15 851 25.13 2.6 36.7 68 -2.6 27.3
06:50 1021 30.15 851 25.13 2.7 36.9 68 -2.5 27.5
06:55 1021 30.15 851 25.13 2.8 37 69 -2.3 27.8
07:00 1021 30.15 851 25.13 2.8 37 69 -2.3 27.8
07:05 1021 30.15 851 25.13 2.9 37.1 69 -2.4 27.7
07:10 1021 30.15 850 25.1 2.9 37.3 70 -2.1 28.2
07:15 1021 30.15 850 25.1 2.6 36.7 69 -2.5 27.5
07:20 1021 30.15 850 25.1 2.8 37.1 68 -2.5 27.5
07:25 1021 30.15 850 25.1 2.6 36.7 67 -2.9 26.8
07:30 1021 30.15 850 25.1 2.7 36.9 65 -3.2 26.3
07:35 1021 30.15 850 25.1 3.1 37.5 64 -3.2 26.3
07:40 1021 30.15 850 25.1 3.4 38.1 62 -3.2 26.2
07:45 1021 30.15 850 25.1 3.1 37.6 63 -3.2 26.2
07:50 1021 30.15 850 25.1 3.2 37.7 62 -3.3 26
07:55 1021 30.15 850 25.1 3.4 38.1 62 -3.3 26.1
08:00 1021 30.15 850 25.1 3.6 38.4 61 -3.2 26.2
08:05 1021 30.15 850 25.1 3.5 38.2 62 -3.2 26.2
08:10 1021 30.15 850 25.1 3.4 38 61 -3.4 25.9
08:15 1021 30.15 850 25.1 3.6 38.4 60 -3.5 25.7
08:20 1021 30.15 850 25.1 3.7 38.7 59 -3.5 25.7
08:25 1021 30.15 850 25.1 3.8 38.8 59 -3.4 25.8
08:30 1021 30.15 850 25.1 4 39.1 59 -3.3 26.1
08:35 1021 30.15 850 25.1 4 39.1 60 -3.1 26.4
08:40 1021 30.15 850 25.1 4 39.2 60 -3.1 26.4
08:45 1021 30.15 850 25.1 4.3 39.7 58 -3.2 26.2
08:50 1021 30.15 850 25.1 4.4 39.9 58 -3.1 26.4
08:55 1021 30.15 850 25.1 4.4 39.9 58 -3.2 26.3
09:00 1021 30.15 850 25.1 4.4 40 59 -3 26.6
09:05 1021 30.15 850 25.1 4.4 39.9 59 -3 26.6
09:10 1021 30.15 850 25.1 4.5 40.1 57 -3.1 26.3
09:15 1021 30.15 850 25.1 4.5 40.2 59 -2.8 27
09:20 1021 30.15 850 25.1 4.3 39.8 60 -2.9 26.8
09:25 1021 30.15 850 25.1 4.4 39.9 59 -2.8 26.9
09:30 1021 30.15 850 25.1 4.6 40.2 57 -3.2 26.2
09:35 1021 30.15 850 25.1 5 41 56 -3.1 26.5
09:40 1021 30.15 850 25.1 5.2 41.4 54 -3.3 26.1
09:45 1021 30.15 850 25.1 5.6 42 54 -3 26.5
09:50 1021 30.15 850 25.1 5.5 41.9 55 -2.8 27
09:55 1021 30.15 850 25.1 5.3 41.5 55 -3 26.6
10:00 1021 30.15 850 25.1 5.4 41.7 55 -3 26.6
10:05 1021 30.15 850 25.1 5.5 41.9 54 -3.1 26.5
10:10 1021 30.15 850 25.1 5.6 42.2 54 -3 26.5
10:15 1021 30.15 850 25.1 5.8 42.4 53 -3.1 26.4
10:20 1021 30.15 850 25.1 5.9 42.6 53 -2.9 26.8
10:25 1021 30.15 850 25.1 5.9 42.6 53 -3 26.6
10:30 1021 30.15 850 25.1 6.2 43.1 51 -3.1 26.4
10:35 1021 30.15 850 25.1 6.5 43.8 50 -3.1 26.5
10:40 1021 30.15 850 25.1 6.8 44.3 50 -3 26.7
10:45 1021 30.15 850 25.1 7 44.7 49 -2.9 26.8
10:50 1021 30.15 850 25.1 7.1 44.8 49 -2.8 27
10:55 1021 30.15 850 25.1 7.3 45.2 50 -2.4 27.7
11:00 1021 30.15 850 25.1 7.6 45.7 49 -2.5 27.4
11:05 1021 30.15 850 25.1 7.7 45.9 48 -2.5 27.5
11:10 1021 30.15 850 25.1 7.8 46 48 -2.5 27.6
11:15 1021 30.15 850 25.1 7.7 45.9 49 -2.3 27.9
11:20 1021 30.15 850 25.1 7.7 45.8 50 -2.2 28
11:25 1021 30.15 850 25.1 7.7 45.8 52 -1.6 29.2
11:30 1021 30.15 850 25.1 7.6 45.7 52 -1.6 29.2
11:35 1021 30.15 850 25.1 7.3 45.1 52 -1.9 28.6
11:40 1021 30.15 850 25.1 7.2 44.9 52 -2.1 28.3
11:45 1021 30.15 850 25.1 7.3 45.2 51 -2.3 27.9
11:50 1021 30.15 850 25.1 7.6 45.6 50 -2.3 27.9
11:55 1021 30.15 850 25.1 7.8 46 49 -2.2 28
12:00 1021 30.15 850 25.1 8.2 46.7 48 -2.3 27.8
12:05 1021 30.15 850 25.1 8.4 47.1 47 -2.3 27.9
12:10 1021 30.15 850 25.1 8.8 47.8 46 -2.3 27.8
12:15 1021 30.15 850 25.1 9.2 48.5 44 -2.3 27.8
12:20 1021 30.15 850 25.1 9.5 49.1 44 -2.2 28.1
12:25 1021 30.15 850 25.1 9.6 49.2 44 -1.9 28.6
12:30 1021 30.15 850 25.1 9.6 49.2 44 -2 28.5
12:35 1021 30.15 850 25.1 9.4 48.8 45 -1.9 28.6
12:40 1021 30.15 850 25.1 9.4 49 44 -2.3 27.9
12:45 1021 30.15 850 25.1 9.9 49.7 43 -2.2 28.1
12:50 1021 30.15 850 25.1 10.1 50.3 42 -2.2 28
12:55 1021 30.15 850 25.1 10.3 50.5 42 -1.9 28.6
13:00 1021 30.15 850 25.1 10.3 50.5 42 -2 28.5
13:05 1021 30.15 850 25.1 10.3 50.6 42 -2.1 28.2
13:10 1021 30.15 850 25.1 10.6 51 41 -2 28.4
13:15 1021 30.15 850 25.1 10.7 51.3 41 -2 28.4
13:20 1021 30.15 850 25.1 10.9 51.7 41 -1.9 28.6
13:25 1021 30.15 850 25.1 11 51.9 40 -1.8 28.7
13:30 1020 30.12 850 25.1 11 51.8 41 -1.6 29
13:35 1020 30.12 850 25.1 11 51.8 41 -1.6 29.1
13:40 1020 30.12 850 25.1 11.2 52.2 40 -1.8 28.7
13:45 1020 30.12 850 25.1 11.5 52.7 38 -2.1 28.2
13:50 1020 30.12 850 25.1 11.7 53 38 -2.1 28.2
13:55 1020 30.12 850 25.1 11.7 53.1 39 -1.7 29
14:00 1020 30.12 849 25.07 11.6 52.8 41 -1.2 29.9
14:05 1020 30.12 849 25.07 11.3 52.3 42 -1.3 29.7
14:10 1020 30.12 849 25.07 11.2 52.2 40 -1.9 28.5
14:15 1020 30.12 849 25.07 11.5 52.8 38 -2.3 27.9
14:20 1020 30.12 849 25.07 11.8 53.2 37 -2.4 27.6
14:25 1020 30.12 849 25.07 11.9 53.4 36 -2.7 27.1
14:30 1020 30.12 849 25.07 12 53.6 37 -2.3 27.9
14:35 1020 30.12 849 25.07 11.9 53.5 37 -2.2 28.1
14:40 1020 30.12 849 25.07 11.8 53.3 38 -2 28.3
14:45 1020 30.12 849 25.07 11.7 53.1 38 -2.1 28.2
14:50 1020 30.12 849 25.07 11.7 53 39 -1.9 28.6
14:55 1020 30.12 849 25.07 11.5 52.8 39 -1.8 28.7
15:00 1020 30.12 849 25.07 11.4 52.5 40 -1.8 28.7
15:05 1020 30.12 849 25.07 11.3 52.4 39 -2.2 28
15:10 1020 30.12 849 25.07 11.5 52.7 38 -2.3 27.9
15:15 1020 30.12 849 25.07 11.6 52.9 38 -2.1 28.3
15:20 1020 30.12 849 25.07 11.6 53 38 -2.2 28.1
15:25 1020 30.12 849 25.07 11.7 53 37 -2.4 27.6
15:30 1020 30.12 849 25.07 11.8 53.2 38 -2.2 28.1
15:35 1020 30.12 849 25.07 11.8 53.3 37 -2.2 28
15:40 1020 30.12 849 25.07 11.8 53.3 38 -2.2 28.1
15:45 1020 30.12 849 25.07 11.8 53.3 38 -2 28.4
15:50 1020 30.12 849 25.07 11.8 53.2 38 -2 28.4
15:55 1020 30.12 849 25.07 11.7 53.1 38 -2.1 28.2
16:00 1020 30.12 849 25.07 11.8 53.2 37 -2.4 27.7
16:05 1020 30.12 849 25.07 12 53.5 37 -2.3 27.9
16:10 1020 30.12 849 25.07 12.1 53.7 36 -2.4 27.8
16:15 1020 30.12 849 25.07 12.2 53.9 36 -2.5 27.6
16:20 1020 30.12 849 25.07 12.2 53.9 36 -2.4 27.6
16:25 1020 30.12 849 25.07 12.1 53.7 36 -2.5 27.5
16:30 1020 30.12 849 25.07 12.1 53.7 36 -2.6 27.4
16:35 1020 30.12 849 25.07 12.1 53.7 36 -2.6 27.4
16:40 1020 30.12 849 25.07 12.1 53.7 35 -2.8 26.9
16:45 1020 30.12 849 25.07 12.2 54 35 -2.8 26.9
16:50 1020 30.12 849 25.07 12.2 54 35 -2.7 27.2
16:55 1020 30.12 849 25.07 12.1 53.8 36 -2.6 27.3
17:00 1020 30.12 849 25.07 12.1 53.7 36 -2.6 27.2
17:05 1020 30.12 849 25.07 12.1 53.7 36 -2.6 27.3
17:10 1020 30.12 849 25.07 12 53.6 36 -2.6 27.3
17:15 1020 30.12 849 25.07 12 53.5 36 -2.5 27.4
17:20 1020 30.12 849 25.07 11.9 53.5 36 -2.4 27.6
17:25 1020 30.12 849 25.07 11.9 53.3 36 -2.6 27.3
17:30 1020 30.12 849 25.07 11.9 53.4 37 -2.4 27.6
17:35 1020 30.12 849 25.07 11.8 53.3 36 -2.6 27.3
17:40 1020 30.12 849 25.07 11.8 53.3 36 -2.6 27.3
17:45 1020 30.12 849 25.07 11.8 53.3 37 -2.5 27.6
17:50 1020 30.12 849 25.07 11.6 52.9 37 -2.5 27.4
17:55 1020 30.12 849 25.07 11.6 52.8 37 -2.7 27.2
18:00 1020 30.12 849 25.07 11.6 52.8 37 -2.5 27.5
18:05 1020 30.12 849 25.07 11.5 52.7 37 -2.6 27.4
18:10 1020 30.12 849 25.07 11.5 52.6 38 -2.4 27.7
18:15 1020 30.12 849 25.07 11.4 52.6 37 -2.7 27.1
18:20 1020 30.12 849 25.07 11.5 52.6 37 -2.5 27.5
18:25 1020 30.12 849 25.07 11.4 52.6 38 -2.5 27.5
18:30 1020 30.12 849 25.07 11.4 52.5 38 -2.5 27.5
18:35 1020 30.12 849 25.07 11.2 52.2 38 -2.5 27.4
18:40 1020 30.12 849 25.07 11.3 52.3 37 -2.7 27.1
18:45 1020 30.12 849 25.07 11.4 52.4 38 -2.5 27.4
18:50 1020 30.12 849 25.07 11.1 52 38 -2.7 27.2
18:55 1020 30.12 849 25.07 11.1 51.9 38 -2.8 27
19:00 1020 30.12 849 25.07 11.1 52 37 -2.9 26.7
19:05 1020 30.12 849 25.07 11.2 52.2 38 -2.6 27.4
19:10 1020 30.12 849 25.07 11 51.9 38 -2.9 26.8
19:15 1020 30.12 849 25.07 11.2 52.1 38 -2.7 27.1
19:20 1020 30.12 849 25.07 11.2 52.1 38 -2.7 27.2
19:25 1020 30.12 849 25.07 11 51.9 38 -2.5 27.4
19:30 1020 30.12 849 25.07 11 51.8 37 -3.1 26.3
19:35 1020 30.12 849 25.07 11.3 52.3 38 -2.4 27.7
19:40 1020 30.12 849 25.07 11 51.8 38 -2.7 27.1
19:45 1020 30.12 849 25.07 11.2 52.1 38 -2.5 27.6
19:50 1020 30.12 849 25.07 11 51.9 39 -2.4 27.6
19:55 1020 30.12 849 25.07 10.9 51.7 40 -2.2 28
20:00 1020 30.12 849 25.07 10.8 51.5 40 -2.3 27.8
20:05 1020 30.12 849 25.07 10.8 51.5 39 -2.5 27.6
20:10 1020 30.12 849 25.07 10.9 51.7 39 -2.5 27.5
20:15 1020 30.12 849 25.07 11 51.8 39 -2.5 27.5
20:20 1020 30.12 849 25.07 11 51.8 39 -2.6 27.4
20:25 1020 30.12 849 25.07 10.9 51.6 39 -2.5 27.5
20:30 1020 30.12 849 25.07 11 51.9 38 -2.7 27.1
20:35 1020 30.12 849 25.07 11.2 52.1 38 -2.5 27.5
20:40 1020 30.12 849 25.07 11.1 51.9 39 -2.5 27.5
20:45 1020 30.12 849 25.07 10.9 51.6 39 -2.4 27.6
20:50 1020 30.12 849 25.07 10.8 51.5 40 -2.4 27.8
20:55 1020 30.12 849 25.07 10.8 51.4 39 -2.5 27.5
21:00 1020 30.12 849 25.07 10.9 51.6 38 -2.7 27.2
21:05 1020 30.12 849 25.07 11 51.7 39 -2.4 27.8
21:10 1020 30.12 849 25.07 10.8 51.5 40 -2.2 28
21:15 1020 30.12 849 25.07 10.7 51.2 41 -2.1 28.3
21:20 1020 30.12 850 25.1 10.5 50.8 42 -2 28.4
21:25 1020 30.12 850 25.1 10.3 50.6 43 -1.7 29
21:30 1020 30.12 850 25.1 10.1 50.1 45 -1.4 29.4
21:35 1020 30.12 850 25.1 9.8 49.7 44 -1.9 28.5
21:40 1020 30.12 850 25.1 10.1 50.2 42 -2.2 28
21:45 1020 30.12 850 25.1 10.3 50.5 42 -1.9 28.6
21:50 1020 30.12 850 25.1 10.1 50.2 43 -1.8 28.7
21:55 1020 30.12 850 25.1 9.9 49.9 44 -1.9 28.7
22:00 1021 30.15 850 25.1 9.8 49.7 44 -1.9 28.6
22:05 1021 30.15 850 25.1 9.9 49.7 42 -2.3 27.8
22:10 1021 30.15 850 25.1 10.1 50.2 42 -2 28.3
22:15 1021 30.15 850 25.1 10 49.9 43 -1.8 28.7
22:20 1021 30.15 850 25.1 9.8 49.6 43 -2.1 28.3
22:25 1021 30.15 850 25.1 9.8 49.6 44 -1.9 28.5
22:30 1021 30.15 850 25.1 9.8 49.6 43 -2.1 28.2
22:35 1021 30.15 850 25.1 9.9 49.7 43 -1.9 28.5
22:40 1021 30.15 850 25.1 9.8 49.6 44 -2 28.4
22:45 1021 30.15 850 25.1 9.8 49.6 44 -1.8 28.7
22:50 1021 30.15 850 25.1 9.7 49.4 44 -1.9 28.6
22:55 1021 30.15 850 25.1 9.7 49.4 45 -1.8 28.8
23:00 1021 30.15 850 25.1 9.6 49.2 45 -1.6 29.1
23:05 1021 30.15 850 25.1 9.4 48.9 46 -1.6 29
23:10 1021 30.15 850 25.1 9.4 48.9 48 -1.1 30.1
23:15 1021 30.15 850 25.1 9.4 48.9 46 -1.5 29.4
23:20 1021 30.15 850 25.1 9.3 48.8 49 -0.9 30.4
23:25 1021 30.15 850 25.1 9.4 48.8 47 -1.5 29.3
23:30 1021 30.15 850 25.1 9.3 48.7 47 -1.5 29.3
23:35 1021 30.15 850 25.1 9.1 48.3 49 -1.1 30.1
23:40 1021 30.15 851 25.13 8.4 47.1 51 -1.2 29.8
23:45 1021 30.15 851 25.13 8.3 46.9 51 -1.2 29.9
23:50 1021 30.15 851 25.13 8.2 46.7 51 -1.4 29.4
23:55 1021 30.15 851 25.13 8.5 47.2 50 -1.3 29.6
24:00 1021 30.15 851 25.13 8.5 47.4 50 -1.2 29.8